首页
METAR-TAF:

METAR-TAF

机场 :

丹吉尔, 弗吉尼亚州, 美国

纬度: 37-49-31N, 经度: 075-59-52W, 海拔: 2米

当前天气观测

该预报发布于14分钟前的12:42 UTC
风速5节,风向东北
温度 7°C
湿度 81%
气压 1029 hPa
能見度: 16.1公里
天空无云

METAR: KTGI 181242Z AUTO 05005KT 10SM CLR 07/04 A3038 RMK AO1

时间: 07:56 (12:56 UTC)


TAF: 丢失

超过4000个机场的气象观测和天气预报(METAR&TAF报告)。

可查询的气象台以黄色和红色小点在地图上表示。

将鼠标移到小点上方,可查看气象台名称。

然后点击查看天气观测和预报。

如需切换地图:点击带黑十字的绿色按钮放大地图;点击带横线的绿色按钮缩小地图;或者点击绿色箭头查看邻近地区的地图。


METAR-TAF: